Time;durP1;ratioP1;P1;durP2;ratioP2;P2;SDS_P1;SDS_P2;PMS_P1;PMS_P2;Temp;Humidity;BMP_temperature;BMP_pressure;BME280_temperature;BME280_humidity;BME280_pressure;Samples;Min_cycle;Max_cycle;Signal;HPM_P1;HPM_P2
2021/09/05 00:01:17;;;;;;;13.07;11.75;;;13.90;83.10;;;;;;4900489;30;20076;-75
2021/09/05 00:03:49;;;;;;;12.27;11.18;;;13.80;83.30;;;;;;4898706;30;20721;-74
2021/09/05 00:06:21;;;;;;;13.05;11.85;;;13.80;82.90;;;;;;4899603;30;20135;-73
2021/09/05 00:08:52;;;;;;;12.82;11.73;;;13.80;82.60;;;;;;4899685;30;20048;-73
2021/09/05 00:11:24;;;;;;;13.20;12.00;;;13.80;82.70;;;;;;4898043;30;20186;-73
2021/09/05 00:13:57;;;;;;;13.73;12.52;;;13.70;82.50;;;;;;4899853;30;20135;-72
2021/09/05 00:16:30;;;;;;;12.90;11.73;;;13.70;82.90;;;;;;4899104;30;20399;-73
2021/09/05 00:19:02;;;;;;;14.15;12.85;;;13.80;83.60;;;;;;4903924;30;20076;-74
2021/09/05 00:21:34;;;;;;;13.68;12.48;;;13.70;83.50;;;;;;4899177;30;20137;-73
2021/09/05 00:24:06;;;;;;;13.98;12.68;;;13.60;83.80;;;;;;4901608;30;20938;-73
2021/09/05 00:26:38;;;;;;;13.38;12.10;;;13.60;83.50;;;;;;4900557;30;20147;-74
2021/09/05 00:29:10;;;;;;;13.35;12.18;;;13.60;83.60;;;;;;4901008;30;20157;-74
2021/09/05 00:31:42;;;;;;;14.05;12.65;;;13.60;83.70;;;;;;4896206;30;20135;-75
2021/09/05 00:34:14;;;;;;;13.35;12.15;;;13.60;83.80;;;;;;4901576;30;20135;-74
2021/09/05 00:36:46;;;;;;;13.13;11.77;;;13.50;84.30;;;;;;4901558;30;20047;-75
2021/09/05 00:39:19;;;;;;;12.45;11.35;;;13.50;84.10;;;;;;4899339;30;20409;-74
2021/09/05 00:41:52;;;;;;;13.27;12.13;;;13.50;83.90;;;;;;4898733;30;20983;-74
2021/09/05 00:44:24;;;;;;;13.57;12.38;;;13.50;83.80;;;;;;4904894;30;20056;-73
2021/09/05 00:46:56;;;;;;;13.80;12.50;;;13.50;84.00;;;;;;4899395;30;20052;-72
2021/09/05 00:49:28;;;;;;;12.75;11.60;;;13.40;83.70;;;;;;4900294;30;20055;-74
2021/09/05 00:52:00;;;;;;;12.98;11.88;;;13.50;83.80;;;;;;4900148;30;20144;-75
2021/09/05 00:54:33;;;;;;;13.18;11.98;;;13.40;84.10;;;;;;4913928;30;20835;-75
2021/09/05 00:57:05;;;;;;;13.05;11.75;;;13.40;83.80;;;;;;4897018;30;20056;-74
2021/09/05 00:59:42;;;;;;;13.15;11.95;;;13.40;83.90;;;;;;4899439;30;20059;-75
2021/09/05 01:02:16;;;;;;;13.35;12.18;;;13.40;84.10;;;;;;4898047;30;20130;-75
2021/09/05 01:04:49;;;;;;;13.55;12.35;;;13.40;84.10;;;;;;4897282;30;20047;-73
2021/09/05 01:07:23;;;;;;;14.07;12.63;;;13.30;84.20;;;;;;4896642;30;20052;-73
2021/09/05 01:09:56;;;;;;;12.95;11.75;;;13.30;84.20;;;;;;4899079;30;20593;-74
2021/09/05 01:12:29;;;;;;;13.63;12.27;;;13.40;84.40;;;;;;4902458;30;20064;-73
2021/09/05 01:15:00;;;;;;;13.88;12.60;;;13.30;83.90;;;;;;4899614;30;20079;-74
2021/09/05 01:17:39;;;;;;;13.52;12.43;;;13.30;84.40;;;;;;4897092;30;20092;-74
2021/09/05 01:20:29;;;;;;;13.80;12.05;;;13.30;83.70;;;;;;4898246;30;20051;-74
2021/09/05 01:23:19;;;;;;;;;;;13.30;83.90;;;;;;4897957;30;20106;-75
2021/09/05 01:26:12;;;;;;;12.68;11.57;;;13.30;83.60;;;;;;4898470;30;20420;-74
2021/09/05 01:29:14;;;;;;;12.93;11.73;;;13.30;83.40;;;;;;4899232;30;20055;-74
2021/09/05 01:32:18;;;;;;;12.90;11.60;;;13.30;83.60;;;;;;4897463;30;20155;-75
2021/09/05 01:35:09;;;;;;;13.15;11.85;;;13.20;84.10;;;;;;4898089;30;20109;-74
2021/09/05 01:37:59;;;;;;;12.48;11.38;;;13.20;84.30;;;;;;4898386;30;20075;-73
2021/09/05 01:41:00;;;;;;;12.60;11.43;;;13.10;84.40;;;;;;4896534;30;20063;-74
2021/09/05 01:43:57;;;;;;;12.75;11.55;;;13.10;84.90;;;;;;4902182;30;20617;-73
2021/09/05 01:46:48;;;;;;;12.85;11.75;;;13.10;84.50;;;;;;4898276;30;20577;-74
2021/09/05 01:49:43;;;;;;;12.88;11.68;;;13.10;85.20;;;;;;4908774;30;20139;-72
2021/09/05 01:52:33;;;;;;;13.52;12.27;;;13.00;84.70;;;;;;4889514;30;20052;-75
2021/09/05 01:55:37;;;;;;;13.20;11.98;;;13.10;84.90;;;;;;4899792;30;20157;-74
2021/09/05 01:58:31;;;;;;;13.23;11.95;;;13.00;84.50;;;;;;4898235;30;20117;-75
2021/09/05 02:01:24;;;;;;;13.30;12.10;;;12.90;84.10;;;;;;4897226;30;20883;-73
2021/09/05 02:04:15;;;;;;;13.18;12.02;;;12.90;83.80;;;;;;4910869;30;20048;-74
2021/09/05 02:07:05;;;;;;;;;;;12.90;84.50;;;;;;4897622;30;20056;-73
2021/09/05 02:09:57;;;;;;;14.02;12.05;;;12.90;83.90;;;;;;4901604;30;19936;-73
2021/09/05 02:13:02;;;;;;;14.25;12.70;;;12.80;84.70;;;;;;4897113;30;20076;-74
2021/09/05 02:15:52;;;;;;;12.93;11.65;;;12.70;85.40;;;;;;4905023;30;20064;-73
2021/09/05 02:18:45;;;;;;;12.88;11.57;;;12.60;84.20;;;;;;4899699;30;20052;-74
2021/09/05 02:21:43;;;;;;;13.00;11.90;;;12.60;83.80;;;;;;4902115;30;20056;-74
2021/09/05 02:24:35;;;;;;;13.20;12.05;;;12.70;83.70;;;;;;4900458;30;20052;-74
2021/09/05 02:27:36;;;;;;;13.15;11.95;;;12.80;83.30;;;;;;4901967;30;20107;-74
2021/09/05 02:30:28;;;;;;;13.82;12.45;;;12.70;84.30;;;;;;4904227;30;20052;-74
2021/09/05 02:33:20;;;;;;;12.68;11.57;;;12.70;83.20;;;;;;4902225;30;20071;-73
2021/09/05 02:36:13;;;;;;;12.77;11.60;;;12.70;83.00;;;;;;4906094;30;20062;-74
2021/09/05 02:39:12;;;;;;;12.80;11.70;;;12.80;83.20;;;;;;4896246;30;20103;-74
2021/09/05 02:42:17;;;;;;;13.63;12.23;;;12.70;83.90;;;;;;4904457;30;20592;-75
2021/09/05 02:45:24;;;;;;;12.70;11.50;;;12.70;83.60;;;;;;4906616;30;20060;-72
2021/09/05 02:48:12;;;;;;;13.40;12.20;;;12.60;84.00;;;;;;4899840;30;20048;-74
2021/09/05 02:51:03;;;;;;;13.10;11.95;;;12.60;83.70;;;;;;4902172;30;20051;-75
2021/09/05 02:54:05;;;;;;;13.52;12.23;;;12.50;84.90;;;;;;4899473;30;20067;-75
2021/09/05 02:57:06;;;;;;;14.00;12.80;;;12.50;86.20;;;;;;4896175;30;20071;-74
2021/09/05 03:00:01;;;;;;;12.82;11.63;;;12.50;86.30;;;;;;4899856;30;20060;-75
2021/09/05 03:02:54;;;;;;;12.82;11.68;;;12.50;86.10;;;;;;4899623;30;20065;-74
2021/09/05 03:05:46;;;;;;;13.32;12.02;;;12.50;85.10;;;;;;4899901;30;20133;-75
2021/09/05 03:08:36;;;;;;;;;;;12.40;85.70;;;;;;4899112;30;20541;-74
2021/09/05 03:11:28;;;;;;;13.48;12.27;;;12.50;85.90;;;;;;4900657;30;20420;-73
2021/09/05 03:14:25;;;;;;;13.18;11.93;;;12.50;86.30;;;;;;4914130;30;20087;-75
2021/09/05 03:17:18;;;;;;;13.90;12.60;;;12.50;85.70;;;;;;4901076;30;20055;-75
2021/09/05 03:20:09;;;;;;;;;;;12.50;85.80;;;;;;4902523;30;20194;-74
2021/09/05 03:23:00;;;;;;;13.48;12.27;;;12.50;85.50;;;;;;4900124;30;20378;-75
2021/09/05 03:25:53;;;;;;;12.80;11.70;;;12.50;85.60;;;;;;4899351;30;20139;-75
2021/09/05 03:28:51;;;;;;;14.07;12.75;;;12.40;85.30;;;;;;4899378;30;20147;-74
2021/09/05 03:31:41;;;;;;;13.90;12.70;;;12.40;85.00;;;;;;4900309;30;20615;-73
2021/09/05 03:34:31;;;;;;;13.82;12.55;;;12.40;85.20;;;;;;4899866;30;20691;-74
2021/09/05 03:37:22;;;;;;;14.27;13.02;;;12.40;85.00;;;;;;4898230;30;20117;-74
2021/09/05 03:40:23;;;;;;;13.40;12.30;;;12.40;86.10;;;;;;4886665;30;20675;-74
2021/09/05 03:43:24;;;;;;;13.13;11.80;;;12.40;86.10;;;;;;4925133;30;20164;-75
2021/09/05 03:46:15;;;;;;;13.05;11.95;;;12.40;85.70;;;;;;4911324;30;20060;-75
2021/09/05 03:49:10;;;;;;;13.23;12.05;;;12.40;85.00;;;;;;4892092;30;20127;-74
2021/09/05 03:51:45;;;;;;;14.50;12.77;;;12.40;85.50;;;;;;4899457;30;20048;-73
2021/09/05 03:54:22;;;;;;;15.05;12.30;;;12.20;85.20;;;;;;4904059;30;20055;-75
2021/09/05 03:56:55;;;;;;;13.88;12.68;;;12.20;84.60;;;;;;4897651;30;20167;-75
2021/09/05 03:59:29;;;;;;;13.23;12.05;;;12.20;84.50;;;;;;4905486;30;20083;-74
2021/09/05 04:02:02;;;;;;;13.02;11.93;;;12.20;84.70;;;;;;4903247;30;20466;-75
2021/09/05 04:04:35;;;;;;;13.50;12.20;;;12.10;85.30;;;;;;4904463;30;20486;-75
2021/09/05 04:07:10;;;;;;;14.05;12.75;;;12.10;84.60;;;;;;4901777;30;20138;-75
2021/09/05 04:12:33;;;;;;;13.30;12.10;;;12.00;84.30;;;;;;4900939;30;20200;-75
2021/09/05 04:15:05;;;;;;;13.27;12.07;;;12.00;84.10;;;;;;4901117;30;20585;-74
2021/09/05 04:17:38;;;;;;;13.13;11.93;;;12.00;84.20;;;;;;4897596;30;20075;-75
2021/09/05 04:20:11;;;;;;;12.52;11.20;;;12.00;84.40;;;;;;4898589;30;20151;-74
2021/09/05 04:22:43;;;;;;;13.70;12.50;;;12.00;84.70;;;;;;4899076;30;20072;-73
2021/09/05 04:25:16;;;;;;;13.32;12.13;;;12.00;85.30;;;;;;4900668;30;20566;-75
2021/09/05 04:27:48;;;;;;;13.43;12.13;;;12.00;84.90;;;;;;4899908;30;20088;-75
2021/09/05 04:30:20;;;;;;;13.23;12.02;;;12.00;84.30;;;;;;4899068;30;20056;-74
2021/09/05 04:32:52;;;;;;;13.82;12.48;;;12.00;83.90;;;;;;4896898;30;20653;-74
2021/09/05 04:35:24;;;;;;;13.02;11.90;;;11.90;84.70;;;;;;4897088;30;20137;-74
2021/09/05 04:37:56;;;;;;;13.95;12.70;;;11.90;85.20;;;;;;4898880;30;20515;-74
2021/09/05 04:40:27;;;;;;;13.60;12.35;;;11.90;85.50;;;;;;4899459;30;20048;-74
2021/09/05 04:42:59;;;;;;;13.40;12.20;;;11.90;84.50;;;;;;4901283;30;20049;-73
2021/09/05 04:45:31;;;;;;;13.00;11.80;;;11.90;84.50;;;;;;4898486;30;20500;-74
2021/09/05 04:48:04;;;;;;;13.50;12.30;;;11.80;83.80;;;;;;4898540;30;20134;-74
2021/09/05 04:50:35;;;;;;;14.10;12.80;;;11.70;83.30;;;;;;4897027;30;20058;-74
2021/09/05 04:53:07;;;;;;;13.07;11.77;;;11.60;84.30;;;;;;4899685;30;20079;-74
2021/09/05 04:55:39;;;;;;;14.02;12.73;;;11.60;84.60;;;;;;4896429;30;20171;-73
2021/09/05 04:58:11;;;;;;;13.48;12.15;;;11.60;84.80;;;;;;4874323;30;20048;-73
2021/09/05 05:00:43;;;;;;;13.00;11.80;;;11.60;84.10;;;;;;4899506;30;20044;-73
2021/09/05 05:03:18;;;;;;;13.10;11.75;;;11.70;84.90;;;;;;4898843;30;20574;-73
2021/09/05 05:06:10;;;;;;;13.50;12.25;;;11.70;85.50;;;;;;4899300;30;20052;-73
2021/09/05 05:08:42;;;;;;;12.52;11.43;;;11.70;85.70;;;;;;4897973;30;20175;-73
2021/09/05 05:11:16;;;;;;;13.43;12.13;;;11.80;85.00;;;;;;4897705;30;20143;-73
2021/09/05 05:13:48;;;;;;;12.88;11.77;;;11.80;85.60;;;;;;4898384;30;20132;-74
2021/09/05 05:16:22;;;;;;;13.38;12.18;;;11.70;84.80;;;;;;4899832;30;20048;-73
2021/09/05 05:18:54;;;;;;;12.50;11.40;;;11.70;85.30;;;;;;4897674;30;20056;-74
2021/09/05 05:21:27;;;;;;;12.23;11.13;;;11.60;85.20;;;;;;4898344;30;20053;-74
2021/09/05 05:23:59;;;;;;;13.30;12.10;;;11.70;85.30;;;;;;4896945;30;20736;-74
2021/09/05 05:26:31;;;;;;;13.27;12.07;;;11.90;85.50;;;;;;4897521;30;20055;-74
2021/09/05 05:29:03;;;;;;;13.50;12.20;;;12.00;86.60;;;;;;4900162;30;20176;-75
2021/09/05 05:31:35;;;;;;;13.38;12.05;;;12.20;87.30;;;;;;4899294;30;20055;-73
2021/09/05 05:34:07;;;;;;;13.43;12.20;;;12.20;86.30;;;;;;4898052;30;20591;-73
2021/09/05 05:36:39;;;;;;;13.35;12.20;;;12.30;85.20;;;;;;4897896;30;20531;-73
2021/09/05 05:39:11;;;;;;;13.85;12.65;;;12.40;85.30;;;;;;4897608;30;20124;-73
2021/09/05 05:41:43;;;;;;;13.93;12.63;;;12.50;84.60;;;;;;4894668;30;20061;-73
2021/09/05 05:44:14;;;;;;;13.23;12.02;;;12.50;84.40;;;;;;4899178;30;20056;-73
2021/09/05 05:46:46;;;;;;;13.38;12.15;;;12.60;84.10;;;;;;4896853;30;20052;-74
2021/09/05 05:49:18;;;;;;;13.98;12.65;;;12.80;84.10;;;;;;4898639;30;21468;-75
2021/09/05 05:51:54;;;;;;;14.32;13.07;;;13.00;84.00;;;;;;4896065;30;20060;-75
2021/09/05 05:54:29;;;;;;;13.95;12.65;;;13.10;84.50;;;;;;4899980;30;20139;-71
2021/09/05 05:57:02;;;;;;;13.90;12.60;;;13.20;85.00;;;;;;4897170;30;20056;-72
2021/09/05 05:59:35;;;;;;;13.38;12.18;;;13.30;84.60;;;;;;4897689;30;20730;-75
2021/09/05 06:02:07;;;;;;;13.85;12.57;;;13.40;83.40;;;;;;4896864;30;20052;-74
2021/09/05 06:04:39;;;;;;;13.55;12.35;;;13.60;82.90;;;;;;4896444;30;20056;-75
2021/09/05 06:07:11;;;;;;;13.27;12.18;;;13.60;82.80;;;;;;4896667;30;20159;-73
2021/09/05 06:09:43;;;;;;;13.60;12.40;;;13.80;82.80;;;;;;4898332;30;20510;-72
2021/09/05 06:12:15;;;;;;;13.93;12.63;;;13.90;82.70;;;;;;4895600;30;20145;-73
2021/09/05 06:14:47;;;;;;;14.13;12.93;;;14.10;82.70;;;;;;4896955;30;20157;-73
2021/09/05 06:17:19;;;;;;;15.50;14.00;;;14.20;82.50;;;;;;4913387;30;20105;-75
2021/09/05 06:19:51;;;;;;;14.75;13.35;;;14.20;83.10;;;;;;4898412;30;20052;-73
2021/09/05 06:22:23;;;;;;;15.13;13.82;;;14.30;82.50;;;;;;4896870;30;20151;-73
2021/09/05 06:24:55;;;;;;;14.43;13.13;;;14.30;82.70;;;;;;4897125;30;20131;-73
2021/09/05 06:27:27;;;;;;;14.07;12.88;;;14.40;82.50;;;;;;4898787;30;20981;-74
2021/09/05 06:30:02;;;;;;;14.73;13.43;;;14.50;82.30;;;;;;4898035;30;20080;-75
2021/09/05 06:32:34;;;;;;;15.88;14.38;;;14.50;83.10;;;;;;4896185;30;20062;-75
2021/09/05 06:35:06;;;;;;;14.05;12.85;;;14.70;82.80;;;;;;4897519;30;20190;-74
2021/09/05 06:37:41;;;;;;;14.40;13.20;;;14.80;81.60;;;;;;4899527;30;20036;-75
2021/09/05 06:40:13;;;;;;;17.08;14.02;;;14.90;82.00;;;;;;4895085;30;20423;-75
2021/09/05 06:42:45;;;;;;;14.55;13.25;;;15.10;81.40;;;;;;4896748;30;20072;-75
2021/09/05 06:45:17;;;;;;;13.35;12.25;;;15.30;81.60;;;;;;4897286;30;20051;-75
2021/09/05 06:47:49;;;;;;;14.65;13.30;;;15.40;81.60;;;;;;4896516;30;20136;-74
2021/09/05 06:50:21;;;;;;;14.65;13.25;;;15.50;81.60;;;;;;4899775;30;20059;-75
2021/09/05 06:52:53;;;;;;;15.32;14.00;;;15.70;81.00;;;;;;4896845;30;20130;-75
2021/09/05 06:55:26;;;;;;;14.45;13.30;;;15.80;80.20;;;;;;4894761;30;20048;-75
2021/09/05 06:57:58;;;;;;;15.25;13.85;;;15.90;80.60;;;;;;4893269;30;20048;-75
2021/09/05 07:00:30;;;;;;;16.20;14.85;;;16.00;80.30;;;;;;4895782;30;20575;-75
2021/09/05 07:03:02;;;;;;;15.38;14.07;;;16.10;78.30;;;;;;4898930;30;20048;-75
2021/09/05 07:05:35;;;;;;;15.27;13.88;;;16.30;78.80;;;;;;4896965;30;20056;-73
2021/09/05 07:08:07;;;;;;;15.68;14.38;;;16.40;79.80;;;;;;4887462;30;20075;-76
2021/09/05 07:10:39;;;;;;;15.88;14.48;;;16.50;78.20;;;;;;4899472;30;20052;-76
2021/09/05 07:13:11;;;;;;;15.50;14.20;;;16.60;76.30;;;;;;4897257;30;20135;-75
2021/09/05 07:15:43;;;;;;;16.20;14.90;;;16.70;78.30;;;;;;4896820;30;20048;-75
2021/09/05 07:18:15;;;;;;;15.98;14.63;;;16.90;77.40;;;;;;4899544;30;20060;-75
2021/09/05 07:20:47;;;;;;;15.45;14.23;;;17.00;75.90;;;;;;4897849;30;20463;-75
2021/09/05 07:23:19;;;;;;;15.75;14.55;;;17.00;75.20;;;;;;4896951;30;20067;-75
2021/09/05 07:25:52;;;;;;;15.60;14.10;;;17.20;76.70;;;;;;4898049;30;20147;-74
2021/09/05 07:28:24;;;;;;;15.55;14.35;;;17.30;74.70;;;;;;4898494;30;20129;-74
2021/09/05 07:30:56;;;;;;;18.67;16.88;;;17.40;76.10;;;;;;4900505;30;20052;-76
2021/09/05 07:33:28;;;;;;;18.27;16.58;;;17.50;76.60;;;;;;4899864;30;20064;-74
2021/09/05 07:35:59;;;;;;;19.40;17.40;;;17.60;76.10;;;;;;4900130;30;20366;-75
2021/09/05 07:38:31;;;;;;;16.23;14.95;;;17.80;75.20;;;;;;4898202;30;20056;-76
2021/09/05 07:41:04;;;;;;;19.42;17.52;;;17.90;75.20;;;;;;4898955;30;20072;-75
2021/09/05 07:43:35;;;;;;;18.17;16.30;;;18.00;75.30;;;;;;4903386;30;20052;-75
2021/09/05 07:46:07;;;;;;;17.35;15.55;;;18.10;75.40;;;;;;4900607;30;20163;-76
2021/09/05 07:48:39;;;;;;;18.52;16.92;;;18.20;74.10;;;;;;4899194;30;20056;-75
2021/09/05 07:51:11;;;;;;;17.35;15.95;;;18.30;74.30;;;;;;4899342;30;20059;-75
2021/09/05 07:53:43;;;;;;;17.10;15.60;;;18.40;74.50;;;;;;4899720;30;20131;-76
2021/09/05 07:56:15;;;;;;;16.70;15.30;;;18.60;73.50;;;;;;4897953;30;20051;-74
2021/09/05 07:58:47;;;;;;;17.05;15.55;;;18.60;71.50;;;;;;4898470;30;20045;-75
2021/09/05 08:01:19;;;;;;;16.25;14.90;;;18.70;72.10;;;;;;4894502;30;20941;-74
2021/09/05 08:03:55;;;;;;;17.38;15.98;;;18.80;70.70;;;;;;4902326;30;20677;-75
2021/09/05 08:06:27;;;;;;;17.40;15.77;;;18.90;69.20;;;;;;4897908;29;20044;-75
2021/09/05 08:08:59;;;;;;;16.10;14.70;;;19.00;69.80;;;;;;4900004;30;20052;-75
2021/09/05 08:11:31;;;;;;;16.05;14.75;;;19.10;65.40;;;;;;4898579;30;20087;-75
2021/09/05 08:14:03;;;;;;;16.23;15.02;;;19.10;67.50;;;;;;4898688;30;20079;-75
2021/09/05 08:16:37;;;;;;;16.33;14.88;;;19.30;67.30;;;;;;4899307;30;20134;-74
2021/09/05 08:19:09;;;;;;;16.50;15.20;;;19.40;67.40;;;;;;4894629;30;20146;-74
2021/09/05 08:21:41;;;;;;;16.20;14.90;;;19.50;66.90;;;;;;4897067;30;20094;-75
2021/09/05 08:24:13;;;;;;;15.85;14.55;;;19.60;65.60;;;;;;4901822;30;20048;-75
2021/09/05 08:26:45;;;;;;;16.45;15.05;;;19.70;69.40;;;;;;4900185;30;20601;-75
2021/09/05 08:29:17;;;;;;;16.05;14.77;;;19.70;63.70;;;;;;4900734;30;20048;-75
2021/09/05 08:31:49;;;;;;;16.25;14.95;;;19.90;68.50;;;;;;4898203;30;20056;-74
2021/09/05 08:34:21;;;;;;;16.35;15.05;;;19.90;67.50;;;;;;4898232;30;20045;-75
2021/09/05 08:36:53;;;;;;;15.77;14.57;;;20.00;63.40;;;;;;4900702;30;20139;-75
2021/09/05 08:39:26;;;;;;;15.93;14.73;;;20.10;64.90;;;;;;4899398;30;20127;-75
2021/09/05 08:41:59;;;;;;;16.13;14.93;;;20.20;61.60;;;;;;4897551;30;20664;-75
2021/09/05 08:44:31;;;;;;;16.83;15.45;;;20.30;66.40;;;;;;4901812;30;20059;-75
2021/09/05 08:47:03;;;;;;;16.27;14.98;;;20.40;67.10;;;;;;4899373;30;20143;-74
2021/09/05 08:49:36;;;;;;;16.55;15.32;;;20.40;62.10;;;;;;4897909;30;20057;-75
2021/09/05 08:52:09;;;;;;;16.85;15.45;;;20.40;65.10;;;;;;4903783;30;20146;-75
2021/09/05 08:54:40;;;;;;;15.63;14.35;;;20.60;63.00;;;;;;4892835;30;20961;-73
2021/09/05 08:57:12;;;;;;;15.77;14.57;;;20.70;62.00;;;;;;4869978;30;20060;-74
2021/09/05 08:59:44;;;;;;;16.85;15.52;;;20.80;65.00;;;;;;4898912;30;20132;-74
2021/09/05 09:02:16;;;;;;;16.65;15.45;;;20.90;64.30;;;;;;4898563;30;20142;-75
2021/09/05 09:04:53;;;;;;;15.85;14.65;;;20.90;62.40;;;;;;4905435;30;20040;-74
2021/09/05 09:07:25;;;;;;;17.00;15.70;;;21.10;68.00;;;;;;4897310;30;20106;-75
2021/09/05 09:09:59;;;;;;;17.45;16.00;;;21.10;65.20;;;;;;4900393;30;20059;-76
2021/09/05 09:12:36;;;;;;;17.38;16.05;;;21.10;65.90;;;;;;4896755;30;20549;-74
2021/09/05 09:15:28;;;;;;;16.92;15.52;;;21.20;65.40;;;;;;4898806;30;20218;-74
2021/09/05 09:18:03;;;;;;;17.63;16.33;;;21.30;67.00;;;;;;4903098;30;20052;-75
2021/09/05 09:20:43;;;;;;;17.77;16.48;;;21.40;65.20;;;;;;4899948;30;20421;-74
2021/09/05 09:23:17;;;;;;;18.83;17.13;;;21.50;66.10;;;;;;4896377;30;20056;-75
2021/09/05 09:25:55;;;;;;;17.92;16.55;;;21.60;67.50;;;;;;4897243;30;20147;-75
2021/09/05 09:28:35;;;;;;;18.25;16.85;;;21.60;65.70;;;;;;4898207;30;20068;-75
2021/09/05 09:31:25;;;;;;;18.05;16.65;;;21.70;67.70;;;;;;4897026;30;20056;-75
2021/09/05 09:33:59;;;;;;;19.13;17.77;;;21.80;66.30;;;;;;4899284;30;20063;-74
2021/09/05 09:36:31;;;;;;;18.75;17.42;;;21.80;66.20;;;;;;4897186;30;20052;-75
2021/09/05 09:39:06;;;;;;;19.17;17.70;;;21.80;65.60;;;;;;4897295;30;20512;-76
2021/09/05 09:41:39;;;;;;;19.58;18.00;;;21.90;66.20;;;;;;4900642;30;20523;-75
2021/09/05 09:44:13;;;;;;;19.58;17.67;;;22.00;65.20;;;;;;4900226;30;20057;-75
2021/09/05 09:46:45;;;;;;;19.58;18.08;;;22.10;66.80;;;;;;4899279;30;20054;-75
2021/09/05 09:49:17;;;;;;;20.00;18.40;;;22.10;67.00;;;;;;4898854;30;20129;-75
2021/09/05 09:51:58;;;;;;;18.67;17.27;;;22.20;65.70;;;;;;4895437;30;20062;-75
2021/09/05 09:54:31;;;;;;;18.55;17.15;;;22.30;66.20;;;;;;4899372;30;20052;-75
2021/09/05 09:57:04;;;;;;;18.63;17.25;;;22.30;65.70;;;;;;4901432;30;20060;-75
2021/09/05 09:59:36;;;;;;;18.83;17.42;;;22.30;65.40;;;;;;4901336;30;20142;-74
2021/09/05 10:02:16;;;;;;;18.50;17.10;;;22.40;65.00;;;;;;4896370;30;20080;-75
2021/09/05 10:04:51;;;;;;;18.55;17.15;;;22.50;65.10;;;;;;4897313;30;20048;-76
2021/09/05 10:07:24;;;;;;;18.63;17.15;;;22.60;64.70;;;;;;4893216;30;20059;-75
2021/09/05 10:10:01;;;;;;;18.02;16.63;;;22.60;60.30;;;;;;4900512;30;20079;-75
2021/09/05 10:12:34;;;;;;;17.38;15.98;;;22.60;64.30;;;;;;4910171;30;20060;-75
2021/09/05 10:15:08;;;;;;;17.67;16.38;;;22.70;62.40;;;;;;4898724;30;20052;-75
2021/09/05 10:17:41;;;;;;;18.60;17.20;;;22.70;63.80;;;;;;4899314;30;20055;-75
2021/09/05 10:20:16;;;;;;;19.23;17.42;;;22.70;64.20;;;;;;4899684;30;20408;-73
2021/09/05 10:22:50;;;;;;;18.77;17.30;;;22.70;63.90;;;;;;4897743;30;20210;-75
2021/09/05 10:25:22;;;;;;;18.70;17.30;;;22.80;63.60;;;;;;4898763;30;20072;-74
2021/09/05 10:27:54;;;;;;;18.65;17.25;;;22.90;62.50;;;;;;4898852;30;20163;-75
2021/09/05 10:30:26;;;;;;;18.40;17.00;;;22.90;63.20;;;;;;4898246;30;20060;-74
2021/09/05 10:33:01;;;;;;;19.17;17.67;;;23.00;63.00;;;;;;4894770;30;20133;-74
2021/09/05 10:35:47;;;;;;;18.67;17.38;;;22.90;62.90;;;;;;4896339;30;20052;-75
2021/09/05 10:38:21;;;;;;;18.80;17.40;;;23.10;62.50;;;;;;4902222;30;20529;-76
2021/09/05 10:40:56;;;;;;;18.70;17.30;;;23.10;62.40;;;;;;4900118;30;20138;-74
2021/09/05 10:43:47;;;;;;;18.52;17.13;;;23.10;61.90;;;;;;4898289;30;20060;-76
2021/09/05 10:46:32;;;;;;;19.02;17.52;;;23.10;61.40;;;;;;4902194;30;20056;-76
2021/09/05 10:49:05;;;;;;;19.05;17.65;;;23.20;62.20;;;;;;4901699;30;20048;-75
2021/09/05 10:51:47;;;;;;;18.70;17.38;;;23.30;62.80;;;;;;4900192;30;20080;-74
2021/09/05 10:54:29;;;;;;;19.90;18.27;;;23.30;61.20;;;;;;4902842;30;20145;-75
2021/09/05 10:57:01;;;;;;;18.67;17.27;;;23.30;62.60;;;;;;4900041;30;20048;-75
2021/09/05 10:59:33;;;;;;;18.95;17.55;;;23.50;62.80;;;;;;4904286;30;20071;-75
2021/09/05 11:02:05;;;;;;;18.73;17.42;;;23.50;61.30;;;;;;4900645;30;20059;-74
2021/09/05 11:04:46;;;;;;;20.00;18.50;;;23.60;61.30;;;;;;4900691;30;20056;-75
2021/09/05 11:07:33;;;;;;;19.75;18.33;;;23.60;61.20;;;;;;4900951;30;20082;-73
2021/09/05 11:10:06;;;;;;;19.60;18.20;;;23.60;61.80;;;;;;4900792;30;20052;-75
2021/09/05 11:12:42;;;;;;;19.70;18.30;;;23.70;58.60;;;;;;4900177;30;20110;-74
2021/09/05 11:15:18;;;;;;;20.00;18.35;;;23.70;62.30;;;;;;4901322;30;20059;-75
2021/09/05 11:17:52;;;;;;;20.48;18.88;;;23.70;60.40;;;;;;4898484;30;20113;-74
2021/09/05 11:20:27;;;;;;;19.48;18.08;;;23.90;61.80;;;;;;4899685;30;20060;-76
2021/09/05 11:23:02;;;;;;;19.50;17.95;;;23.90;60.50;;;;;;4901350;30;20052;-75
2021/09/05 11:25:39;;;;;;;19.67;18.17;;;23.90;59.00;;;;;;4900104;30;20048;-75
2021/09/05 11:28:12;;;;;;;19.15;17.75;;;24.00;58.50;;;;;;4875139;30;20714;-74
2021/09/05 11:31:04;;;;;;;19.65;18.02;;;24.00;58.90;;;;;;4900136;30;20055;-75
2021/09/05 11:33:36;;;;;;;18.85;17.55;;;23.90;56.00;;;;;;4899506;30;20090;-75
2021/09/05 11:36:10;;;;;;;19.98;18.38;;;23.90;56.70;;;;;;4899747;30;20060;-75
2021/09/05 11:38:42;;;;;;;19.40;17.88;;;24.10;56.00;;;;;;4900676;30;20800;-75
2021/09/05 11:41:23;;;;;;;18.65;17.35;;;24.20;57.50;;;;;;4902482;30;20057;-75
2021/09/05 11:43:56;;;;;;;19.02;17.63;;;24.10;56.60;;;;;;4904410;30;20066;-75
2021/09/05 11:46:28;;;;;;;19.35;17.85;;;24.20;56.10;;;;;;4899491;30;20135;-75
2021/09/05 11:49:03;;;;;;;19.35;17.95;;;24.30;54.60;;;;;;4898662;30;20083;-75
2021/09/05 11:51:39;;;;;;;19.27;17.88;;;24.30;56.40;;;;;;4898194;30;20061;-75
2021/09/05 11:54:11;;;;;;;18.15;16.85;;;24.30;54.90;;;;;;4895559;30;20048;-74
2021/09/05 11:56:49;;;;;;;18.75;17.35;;;24.40;54.40;;;;;;4900735;30;20499;-74
2021/09/05 11:59:22;;;;;;;18.08;16.77;;;24.40;54.90;;;;;;4902943;30;20865;-74
2021/09/05 12:01:56;;;;;;;18.65;17.35;;;24.50;55.20;;;;;;4904615;30;20053;-75
2021/09/05 12:04:29;;;;;;;18.55;17.25;;;24.50;53.50;;;;;;4898036;30;20080;-76
2021/09/05 12:07:03;;;;;;;18.92;17.52;;;24.60;54.50;;;;;;4899912;30;20697;-75
2021/09/05 12:09:35;;;;;;;19.05;17.50;;;24.60;54.20;;;;;;4916188;30;20473;-76
2021/09/05 12:12:08;;;;;;;18.70;17.38;;;24.70;55.10;;;;;;4898493;30;20137;-76
2021/09/05 12:14:40;;;;;;;19.85;18.35;;;24.70;54.10;;;;;;4904882;30;20819;-76
2021/09/05 12:17:22;;;;;;;19.73;18.30;;;24.80;56.30;;;;;;4898776;30;20056;-76
2021/09/05 12:20:03;;;;;;;18.95;17.55;;;24.90;55.70;;;;;;4898296;30;20060;-75
2021/09/05 12:22:48;;;;;;;18.98;17.58;;;24.90;52.60;;;;;;4900434;30;20606;-76
2021/09/05 12:25:31;;;;;;;19.95;18.45;;;24.90;53.10;;;;;;4897716;30;20127;-76
2021/09/05 12:28:07;;;;;;;20.88;19.20;;;24.90;53.40;;;;;;4912920;30;20504;-77
2021/09/05 12:30:53;;;;;;;18.98;17.48;;;24.90;53.20;;;;;;4894641;30;20200;-76
2021/09/05 12:33:27;;;;;;;19.52;18.02;;;25.00;53.40;;;;;;4899320;30;20052;-75
2021/09/05 12:36:07;;;;;;;19.30;17.65;;;25.10;52.20;;;;;;4900632;30;20143;-76
2021/09/05 12:38:39;;;;;;;19.33;17.92;;;25.00;51.40;;;;;;4898901;30;20074;-76
2021/09/05 12:41:13;;;;;;;19.63;18.02;;;24.90;50.40;;;;;;4899498;30;20147;-76
2021/09/05 12:43:56;;;;;;;18.95;17.58;;;24.90;52.70;;;;;;4902539;30;20473;-76
2021/09/05 12:46:46;;;;;;;18.58;17.17;;;25.00;52.60;;;;;;4898593;30;20059;-76
2021/09/05 12:49:21;;;;;;;18.60;17.30;;;24.90;50.60;;;;;;4899289;30;20056;-76
2021/09/05 12:51:57;;;;;;;18.98;17.52;;;25.00;50.70;;;;;;4897055;30;20147;-76
2021/09/05 12:54:29;;;;;;;18.67;17.23;;;25.00;52.50;;;;;;4898622;30;20052;-76
2021/09/05 12:57:03;;;;;;;19.08;17.67;;;24.80;50.50;;;;;;4907235;30;20040;-75
2021/09/05 12:59:35;;;;;;;18.90;17.50;;;24.60;51.10;;;;;;4902296;30;20056;-76
2021/09/05 13:02:09;;;;;;;18.90;17.50;;;24.60;51.00;;;;;;4901690;30;20411;-75
2021/09/05 13:04:41;;;;;;;19.55;18.05;;;24.70;50.80;;;;;;4897568;30;20048;-75
2021/09/05 13:07:16;;;;;;;19.85;18.25;;;24.60;49.80;;;;;;4894676;30;20069;-74
2021/09/05 13:09:48;;;;;;;18.65;17.27;;;24.60;50.20;;;;;;4898295;30;20060;-75
2021/09/05 13:12:20;;;;;;;18.52;16.95;;;24.60;49.70;;;;;;4902700;30;20056;-75
2021/09/05 13:14:53;;;;;;;18.60;17.30;;;24.70;50.00;;;;;;4903676;30;20532;-75
2021/09/05 13:17:25;;;;;;;18.65;17.35;;;24.70;50.90;;;;;;4897671;30;20048;-76
2021/09/05 13:19:58;;;;;;;19.42;17.65;;;24.80;51.90;;;;;;4911461;30;20053;-75
2021/09/05 13:22:31;;;;;;;18.75;17.35;;;24.80;49.50;;;;;;4899394;30;20044;-75